Time;durP1;ratioP1;P1;durP2;ratioP2;P2;SDS_P1;SDS_P2;PMS_P1;PMS_P2;Temp;Humidity;BMP_temperature;BMP_pressure;BME280_temperature;BME280_humidity;BME280_pressure;Samples;Min_cycle;Max_cycle;Signal;HPM_P1;HPM_P2
2024/04/21 00:02:22;;;;;;;9.23;2.25;;;;;;;7.99;81.68;102182.94;5636998;26;20003;-77
2024/04/21 00:04:54;;;;;;;6.88;2.03;;;;;;;8.01;80.89;102173.28;5638787;26;20016;-77
2024/04/21 00:07:26;;;;;;;7.78;1.85;;;;;;;7.99;78.61;102178.59;5640189;26;20012;-74
2024/04/21 00:09:58;;;;;;;7.47;1.90;;;;;;;7.96;78.04;102172.69;5635396;26;20003;-76
2024/04/21 00:12:30;;;;;;;9.50;2.00;;;;;;;7.97;80.34;102184.81;5639883;26;20492;-74
2024/04/21 00:15:03;;;;;;;6.32;1.55;;;;;;;7.92;79.95;102169.41;5638095;26;20005;-74
2024/04/21 00:17:35;;;;;;;10.15;2.35;;;;;;;7.96;79.36;102173.53;5636253;26;20011;-76
2024/04/21 00:20:07;;;;;;;11.73;2.03;;;;;;;7.90;78.82;102162.56;5643163;26;20474;-75
2024/04/21 00:22:39;;;;;;;9.52;2.13;;;;;;;7.87;80.67;102147.06;5642021;26;20054;-75
2024/04/21 00:25:11;;;;;;;8.40;1.77;;;;;;;7.94;81.77;102157.09;5634029;26;20022;-75
2024/04/21 00:27:43;;;;;;;8.52;2.10;;;;;;;7.93;77.26;102158.03;5638412;26;20249;-74
2024/04/21 00:30:15;;;;;;;6.68;2.08;;;;;;;7.92;78.34;102148.53;5636730;26;20006;-74
2024/04/21 00:32:47;;;;;;;10.45;1.80;;;;;;;7.99;80.31;102159.47;5635947;26;20027;-74
2024/04/21 00:35:18;;;;;;;7.13;2.00;;;;;;;7.98;77.19;102156.00;5637072;26;19999;-75
2024/04/21 00:37:50;;;;;;;5.25;1.40;;;;;;;7.90;79.40;102137.31;5640311;26;20018;-74
2024/04/21 00:40:22;;;;;;;4.65;1.67;;;;;;;7.85;80.38;102133.28;5629181;26;20444;-74
2024/04/21 00:42:58;;;;;;;8.75;2.42;;;;;;;7.93;79.60;102145.00;5633234;26;20732;-75
2024/04/21 00:45:31;;;;;;;4.25;1.35;;;;;;;7.83;80.67;102154.22;5635155;26;20035;-75
2024/04/21 00:48:05;;;;;;;7.53;1.77;;;;;;;7.79;78.11;102137.88;5643820;26;20022;-74
2024/04/21 00:50:39;;;;;;;8.23;1.13;;;;;;;7.79;77.44;102157.91;5641745;26;20042;-74
2024/04/21 00:53:13;;;;;;;5.32;1.30;;;;;;;7.71;77.06;102168.75;5632683;26;20000;-74
2024/04/21 00:55:45;;;;;;;;;;;;;;;8.40;75.19;102162.50;5637579;26;20007;-74
2024/04/21 00:58:18;;;;;;;9.07;2.08;;;;;;;7.73;78.47;102173.91;5636100;26;19925;-74
2024/04/21 01:00:50;;;;;;;6.28;2.30;;;;;;;7.57;77.55;102159.00;5640305;26;20026;-74
2024/04/21 01:03:22;;;;;;;9.45;1.80;;;;;;;7.61;75.95;102161.47;5644367;26;20021;-76
2024/04/21 01:05:54;;;;;;;6.00;1.73;;;;;;;7.63;76.81;102165.69;5637049;26;20015;-74
2024/04/21 01:08:26;;;;;;;8.15;1.92;;;;;;;7.64;76.36;102169.13;5632208;26;20550;-74
2024/04/21 01:10:58;;;;;;;8.60;1.67;;;;;;;7.65;75.41;102147.34;5642245;26;20013;-74
2024/04/21 01:13:30;;;;;;;7.43;1.40;;;;;;;7.64;76.82;102153.47;5631649;26;20007;-75
2024/04/21 01:16:02;;;;;;;4.90;1.23;;;;;;;7.57;76.50;102132.91;5642327;26;21322;-74
2024/04/21 01:18:34;;;;;;;6.07;1.63;;;;;;;7.52;77.56;102132.34;5631574;26;20078;-76
2024/04/21 01:21:06;;;;;;;8.80;1.88;;;;;;;7.52;76.31;102139.31;5637427;26;20023;-74
2024/04/21 01:23:38;;;;;;;5.60;1.20;;;;;;;7.54;74.82;102133.09;5643296;26;20033;-76
2024/04/21 01:26:10;;;;;;;6.47;1.88;;;;;;;7.40;77.99;102114.72;5637104;26;20781;-74
2024/04/21 01:28:41;;;;;;;7.20;1.52;;;;;;;7.46;78.74;102124.84;5631313;26;20516;-76
2024/04/21 01:31:15;;;;;;;7.47;1.55;;;;;;;7.46;78.10;102124.84;5634285;26;20007;-74
2024/04/21 01:33:47;;;;;;;6.47;1.55;;;;;;;7.35;79.64;102119.31;5634180;26;20048;-75
2024/04/21 01:36:19;;;;;;;5.78;1.80;;;;;;;7.39;79.47;102125.22;5640104;26;20006;-75
2024/04/21 01:38:51;;;;;;;4.82;1.35;;;;;;;7.33;79.86;102134.19;5642362;26;19995;-74
2024/04/21 01:41:22;;;;;;;4.88;1.50;;;;;;;7.23;82.17;102132.97;5640066;26;20014;-74
2024/04/21 01:43:54;;;;;;;7.03;1.80;;;;;;;7.23;81.72;102130.34;5638668;26;19999;-74
2024/04/21 01:46:26;;;;;;;6.47;1.55;;;;;;;7.23;82.93;102130.34;5630806;26;20045;-75
2024/04/21 01:48:58;;;;;;;3.58;1.10;;;;;;;7.18;86.24;102114.09;5634752;26;20007;-74
2024/04/21 01:51:30;;;;;;;5.05;1.27;;;;;;;7.11;83.79;102123.16;5636082;26;20345;-76
2024/04/21 01:54:02;;;;;;;5.85;1.33;;;;;;;7.05;85.13;102111.28;5648066;26;20017;-74
2024/04/21 01:56:34;;;;;;;7.25;1.52;;;;;;;6.96;84.22;102098.69;5644462;26;20657;-73
2024/04/21 01:59:06;;;;;;;6.22;1.40;;;;;;;7.03;85.78;102107.91;5630014;26;20101;-74
2024/04/21 02:01:38;;;;;;;4.32;1.30;;;;;;;6.83;87.69;102090.66;5640594;26;20000;-74
2024/04/21 02:04:10;;;;;;;4.60;1.23;;;;;;;6.92;83.75;102111.03;5640623;26;20003;-74
2024/04/21 02:06:41;;;;;;;6.60;1.38;;;;;;;6.89;86.82;102092.09;5640492;26;20018;-73
2024/04/21 02:09:13;;;;;;;4.90;1.38;;;;;;;6.86;85.54;102093.13;5638833;26;20013;-76
2024/04/21 02:11:45;;;;;;;5.07;1.52;;;;;;;6.76;84.87;102079.69;5642137;26;20003;-75
2024/04/21 02:14:17;;;;;;;6.40;1.35;;;;;;;6.80;86.25;102082.97;5642108;26;20763;-75
2024/04/21 02:16:49;;;;;;;4.75;1.27;;;;;;;6.71;85.82;102088.66;5628522;26;20026;-73
2024/04/21 02:19:21;;;;;;;7.18;1.20;;;;;;;6.67;86.07;102079.31;5632861;26;20007;-73
2024/04/21 02:21:53;;;;;;;7.38;1.65;;;;;;;6.71;88.02;102078.25;5631794;26;20003;-74
2024/04/21 02:24:26;;;;;;;5.38;1.27;;;;;;;6.62;87.73;102073.47;5642069;26;20000;-74
2024/04/21 02:26:58;;;;;;;4.35;1.40;;;;;;;6.71;86.99;102078.25;5634244;26;20047;-74
2024/04/21 02:29:30;;;;;;;5.25;1.40;;;;;;;6.59;88.26;102064.03;5634791;26;19999;-74
2024/04/21 02:32:02;;;;;;;8.25;2.13;;;;;;;6.55;87.51;102073.78;5637691;26;20017;-74
2024/04/21 02:34:33;;;;;;;8.20;1.52;;;;;;;6.50;89.66;102067.91;5651076;26;20472;-74
2024/04/21 02:37:05;;;;;;;8.13;2.35;;;;;;;6.50;87.07;102061.88;5639249;26;20004;-75
2024/04/21 02:39:37;;;;;;;4.88;1.52;;;;;;;6.49;89.89;102062.81;5641579;26;20018;-76
2024/04/21 02:42:09;;;;;;;5.82;1.40;;;;;;;6.34;90.31;102053.97;5637999;26;20004;-74
2024/04/21 02:44:41;;;;;;;9.60;1.92;;;;;;;6.38;91.22;102065.91;5640939;26;20042;-74
2024/04/21 02:47:13;;;;;;;4.80;1.30;;;;;;;6.40;88.15;102058.84;5638682;26;19999;-74
2024/04/21 02:49:46;;;;;;;4.90;1.30;;;;;;;6.39;87.93;102045.94;5638008;26;20003;-74
2024/04/21 02:52:18;;;;;;;7.35;1.23;;;;;;;6.35;88.38;102042.63;5645322;26;20022;-76
2024/04/21 02:54:50;;;;;;;6.43;1.30;;;;;;;6.29;86.59;102035.13;5645042;26;20051;-73
2024/04/21 02:57:22;;;;;;;8.90;1.48;;;;;;;6.28;88.91;102038.63;5641979;26;20368;-75
2024/04/21 02:59:55;;;;;;;5.53;1.35;;;;;;;6.27;89.43;102036.94;5648398;26;19995;-74
2024/04/21 03:02:27;;;;;;;8.40;1.88;;;;;;;6.29;90.41;102035.13;5639637;26;20109;-74
2024/04/21 03:04:59;;;;;;;6.07;1.60;;;;;;;6.23;89.99;102019.81;5644184;26;20035;-73
2024/04/21 03:07:34;;;;;;;6.18;1.23;;;;;;;6.33;88.49;102021.91;5635459;26;20086;-75
2024/04/21 03:10:06;;;;;;;5.95;1.52;;;;;;;6.32;87.70;102030.59;5637564;26;20028;-74
2024/04/21 03:12:38;;;;;;;5.63;1.08;;;;;;;6.29;87.60;102015.16;5634037;26;20035;-74
2024/04/21 03:15:10;;;;;;;6.32;1.40;;;;;;;6.29;86.86;102015.16;5635758;26;20000;-74
2024/04/21 03:17:42;;;;;;;5.85;1.45;;;;;;;6.41;86.12;102024.13;5629368;26;20713;-74
2024/04/21 03:20:14;;;;;;;6.75;1.33;;;;;;;6.43;86.15;102017.06;5637667;26;20043;-75
2024/04/21 03:22:46;;;;;;;5.30;1.40;;;;;;;6.40;85.04;102012.00;5640713;26;20385;-74
2024/04/21 03:25:18;;;;;;;4.90;1.23;;;;;;;6.46;86.79;102005.66;5636400;26;20003;-74
2024/04/21 03:27:49;;;;;;;7.72;1.65;;;;;;;6.47;85.56;102012.56;5646638;26;20006;-75
2024/04/21 03:30:21;;;;;;;4.85;1.35;;;;;;;6.41;86.72;102002.47;5635400;26;20007;-74
2024/04/21 03:32:53;;;;;;;6.68;1.20;;;;;;;6.49;86.32;102003.75;5636961;26;20031;-73
2024/04/21 03:35:25;;;;;;;6.13;1.27;;;;;;;6.53;86.81;101996.66;5648895;26;20048;-76
2024/04/21 03:37:57;;;;;;;7.57;1.45;;;;;;;6.40;88.19;101995.56;5646436;26;20006;-76
2024/04/21 03:40:29;;;;;;;6.50;1.77;;;;;;;6.34;87.75;101981.09;5646271;26;20015;-75
2024/04/21 03:43:01;;;;;;;6.00;1.13;;;;;;;6.46;89.94;101987.44;5635074;26;20923;-73
2024/04/21 03:45:33;;;;;;;7.13;1.55;;;;;;;6.36;89.49;101975.78;5642901;26;20708;-75
2024/04/21 03:48:05;;;;;;;7.80;2.20;;;;;;;6.41;88.99;101979.03;5629704;26;20043;-74
2024/04/21 03:50:37;;;;;;;7.20;1.88;;;;;;;6.41;92.08;101966.88;5642407;26;20353;-74
2024/04/21 03:53:12;;;;;;;6.32;1.50;;;;;;;6.49;90.19;101956.91;5639847;26;20026;-76
2024/04/21 03:55:44;;;;;;;8.68;1.55;;;;;;;6.42;89.42;101962.50;5639004;26;20043;-73
2024/04/21 03:58:16;;;;;;;6.97;1.42;;;;;;;6.43;90.37;101953.75;5640889;26;20054;-74
2024/04/21 04:00:48;;;;;;;10.27;1.90;;;;;;;6.52;94.51;101959.38;5636736;26;20017;-74
2024/04/21 04:03:20;;;;;;;8.65;2.22;;;;;;;6.52;93.68;101964.56;5632641;26;20060;-75
2024/04/21 04:05:52;;;;;;;7.30;1.63;;;;;;;6.56;91.56;101958.28;5627850;26;20340;-74
2024/04/21 04:08:23;;;;;;;5.93;1.42;;;;;;;6.58;93.47;101953.81;5636143;26;20018;-73
2024/04/21 04:10:55;;;;;;;9.98;2.10;;;;;;;6.61;95.92;101952.00;5636320;26;20034;-74
2024/04/21 04:13:27;;;;;;;11.45;1.65;;;;;;;6.58;96.00;101935.59;5627958;26;20059;-76
2024/04/21 04:15:59;;;;;;;6.53;1.52;;;;;;;6.55;96.04;101929.72;5636823;26;20340;-74
2024/04/21 04:18:31;;;;;;;8.30;1.73;;;;;;;6.57;96.22;101944.34;5643320;26;19999;-74
2024/04/21 04:21:03;;;;;;;8.60;1.50;;;;;;;6.52;96.63;101932.50;5632208;26;20007;-74
2024/04/21 04:23:35;;;;;;;8.32;1.60;;;;;;;6.51;99.67;101930.78;5632598;26;20099;-74
2024/04/21 04:26:07;;;;;;;7.20;1.60;;;;;;;6.48;99.73;101934.41;5643629;26;20092;-74
2024/04/21 04:28:39;;;;;;;7.25;1.52;;;;;;;6.43;98.87;101940.75;5642328;26;20015;-74
2024/04/21 04:31:11;;;;;;;10.70;1.55;;;;;;;6.42;99.49;101933.84;5642903;26;20006;-75
2024/04/21 04:33:43;;;;;;;4.03;1.27;;;;;;;6.43;100.00;101935.53;5632969;26;20446;-74
2024/04/21 04:36:14;;;;;;;5.95;1.30;;;;;;;6.42;100.00;101931.25;5646676;26;19999;-74
2024/04/21 04:38:46;;;;;;;7.60;1.13;;;;;;;6.38;100.00;101930.56;5640640;26;20004;-74
2024/04/21 04:41:18;;;;;;;7.70;1.48;;;;;;;6.39;100.00;101934.00;5645523;26;20006;-76
2024/04/21 04:43:50;;;;;;;6.32;1.17;;;;;;;6.35;100.00;101933.31;5630075;26;20010;-73
2024/04/21 04:46:22;;;;;;;7.07;1.30;;;;;;;6.36;100.00;101945.41;5640417;26;20007;-75
2024/04/21 04:48:54;;;;;;;5.85;1.13;;;;;;;6.34;100.00;101945.50;5634613;26;20000;-75
2024/04/21 04:51:26;;;;;;;6.72;1.40;;;;;;;6.34;100.00;101949.84;5636666;26;20004;-76
2024/04/21 04:53:58;;;;;;;5.05;1.40;;;;;;;6.26;100.00;101942.44;5641023;26;20044;-74
2024/04/21 04:56:29;;;;;;;6.53;1.10;;;;;;;6.30;100.00;101956.13;5642550;26;20010;-76
2024/04/21 04:59:01;;;;;;;4.38;1.30;;;;;;;6.23;100.00;101950.38;5635070;26;21581;-76
2024/04/21 05:01:33;;;;;;;6.68;1.30;;;;;;;5.93;100.00;101907.66;5631634;26;20847;-75
2024/04/21 05:04:05;;;;;;;5.43;1.48;;;;;;;6.14;100.00;101947.38;5632755;26;20035;-74
2024/04/21 05:06:38;;;;;;;5.80;1.23;;;;;;;6.12;100.00;101944.84;5634175;26;20366;-76
2024/04/21 05:09:09;;;;;;;3.88;1.10;;;;;;;6.09;100.00;101945.84;5637620;26;20492;-76
2024/04/21 05:11:41;;;;;;;5.25;1.48;;;;;;;6.07;100.00;101949.44;5643182;26;20006;-74
2024/04/21 05:14:13;;;;;;;5.05;1.98;;;;;;;6.12;100.00;101957.03;5640043;26;20015;-74
2024/04/21 05:16:45;;;;;;;4.47;0.80;;;;;;;6.12;100.00;101964.81;5637961;26;20689;-75
2024/04/21 05:19:17;;;;;;;5.32;1.25;;;;;;;6.15;100.00;101960.31;5635431;26;20039;-76
2024/04/21 05:21:49;;;;;;;4.93;1.25;;;;;;;6.17;100.00;101961.06;5643496;26;20007;-75
2024/04/21 05:24:21;;;;;;;4.15;1.00;;;;;;;6.24;100.00;101970.28;5630965;26;20043;-73
2024/04/21 05:26:53;;;;;;;4.55;1.00;;;;;;;6.27;100.00;101969.28;5636989;26;20019;-74
2024/04/21 05:29:25;;;;;;;6.03;1.25;;;;;;;6.30;100.00;101969.97;5639255;26;20028;-75
2024/04/21 05:31:57;;;;;;;5.38;1.10;;;;;;;6.34;100.00;101976.72;5636325;26;21423;-73
2024/04/21 05:34:29;;;;;;;4.45;1.27;;;;;;;6.34;100.00;101976.72;5633196;26;20027;-74
2024/04/21 05:37:01;;;;;;;5.63;1.13;;;;;;;6.34;100.00;101978.50;5634869;26;20378;-74
2024/04/21 05:39:33;;;;;;;8.73;1.35;;;;;;;6.35;100.00;101982.75;5634066;26;20039;-74
2024/04/21 05:42:04;;;;;;;4.25;1.10;;;;;;;6.38;100.00;101982.63;5633666;26;20007;-74
2024/04/21 05:44:36;;;;;;;3.97;1.02;;;;;;;6.41;100.00;101992.06;5631357;26;20072;-74
2024/04/21 05:47:08;;;;;;;5.90;1.27;;;;;;;6.41;100.00;101989.44;5640442;26;20009;-74
2024/04/21 05:49:40;;;;;;;6.18;0.98;;;;;;;6.41;100.00;101989.44;5631850;26;20378;-74
2024/04/21 05:52:14;;;;;;;7.05;1.23;;;;;;;6.43;100.00;101985.84;5644951;26;20010;-76
2024/04/21 05:54:46;;;;;;;4.28;0.82;;;;;;;6.56;100.00;102006.91;5647055;26;20050;-75
2024/04/21 05:57:18;;;;;;;4.43;1.15;;;;;;;6.56;100.00;102012.13;5641885;26;20010;-74
2024/04/21 05:59:50;;;;;;;5.05;1.08;;;;;;;6.50;100.00;102005.44;5650708;26;20007;-74
2024/04/21 06:02:22;;;;;;;7.57;1.40;;;;;;;6.50;100.00;102002.00;5641985;26;20062;-74
2024/04/21 06:04:54;;;;;;;3.88;1.10;;;;;;;6.49;100.00;102005.53;5632462;26;20011;-76
2024/04/21 06:07:25;;;;;;;5.53;1.20;;;;;;;6.53;100.00;102005.28;5636848;26;20280;-74
2024/04/21 06:09:58;;;;;;;5.30;1.10;;;;;;;6.62;100.00;102009.19;5642018;26;20018;-74
2024/04/21 06:12:32;;;;;;;6.00;1.30;;;;;;;6.76;100.00;102011.97;5644013;26;20031;-74
2024/04/21 06:15:04;;;;;;;6.43;1.48;;;;;;;6.73;100.00;102011.28;5650759;26;20311;-74
2024/04/21 06:17:36;;;;;;;4.90;1.10;;;;;;;6.81;100.00;102027.34;5659156;26;20046;-74
2024/04/21 06:20:08;;;;;;;5.43;1.70;;;;;;;6.78;100.00;102030.97;5649664;26;20013;-76
2024/04/21 06:22:40;;;;;;;4.00;1.30;;;;;;;6.82;100.00;102040.31;5641648;26;20492;-74
2024/04/21 06:25:12;;;;;;;5.35;1.33;;;;;;;6.85;100.00;102043.69;5642416;26;20011;-75
2024/04/21 06:27:44;;;;;;;6.97;1.63;;;;;;;6.91;100.00;102043.38;5651409;26;20003;-76
2024/04/21 06:30:16;;;;;;;3.40;1.20;;;;;;;6.91;100.00;102046.00;5643719;26;20007;-76
2024/04/21 06:32:48;;;;;;;7.35;1.60;;;;;;;6.87;100.00;102029.66;5647279;26;20650;-76
2024/04/21 06:35:20;;;;;;;5.80;1.27;;;;;;;6.97;100.00;102043.06;5652700;26;20024;-74
2024/04/21 06:37:52;;;;;;;4.72;1.10;;;;;;;6.92;100.00;102029.44;5646256;26;20114;-74
2024/04/21 06:40:24;;;;;;;6.15;1.50;;;;;;;7.05;100.00;102048.75;5640940;26;20011;-74
2024/04/21 06:42:56;;;;;;;4.55;1.20;;;;;;;7.11;100.00;102050.19;5635486;26;20034;-74
2024/04/21 06:45:27;;;;;;;5.95;1.38;;;;;;;7.15;100.00;102065.59;5637891;26;20018;-74
2024/04/21 06:47:59;;;;;;;3.08;1.00;;;;;;;7.24;100.00;102059.06;5635003;26;20013;-77
2024/04/21 06:50:34;;;;;;;5.15;1.02;;;;;;;7.19;100.00;102064.50;5641432;26;20002;-74
2024/04/21 06:53:06;;;;;;;5.53;1.20;;;;;;;7.22;100.00;102076.53;5626873;26;20114;-74
2024/04/21 06:55:38;;;;;;;2.97;1.23;;;;;;;7.22;100.00;102069.56;5643421;26;20014;-75
2024/04/21 06:58:10;;;;;;;3.92;1.00;;;;;;;7.29;100.00;102091.78;5637568;26;20031;-74
2024/04/21 07:00:42;;;;;;;4.88;1.23;;;;;;;7.22;100.00;102079.16;5642956;26;20002;-74
2024/04/21 07:03:14;;;;;;;3.13;1.42;;;;;;;7.18;100.00;102091.50;5643656;26;19995;-75
2024/04/21 07:05:46;;;;;;;2.97;1.00;;;;;;;7.22;100.00;102103.44;5644872;26;20075;-76
2024/04/21 07:08:18;;;;;;;3.60;0.80;;;;;;;7.27;100.00;102105.81;5644188;26;20047;-74
2024/04/21 07:10:50;;;;;;;2.80;0.90;;;;;;;7.20;100.00;102107.06;5639226;26;20030;-76
2024/04/21 07:13:23;;;;;;;3.88;1.33;;;;;;;7.19;100.00;102111.41;5642251;26;20446;-74
2024/04/21 07:15:55;;;;;;;4.82;1.08;;;;;;;7.30;100.00;102119.53;5640963;26;20043;-74
2024/04/21 07:18:27;;;;;;;4.57;1.05;;;;;;;7.28;100.00;102126.59;5630679;26;20011;-73
2024/04/21 07:20:59;;;;;;;3.17;0.80;;;;;;;7.29;100.00;102128.28;5638790;26;20023;-73
2024/04/21 07:23:31;;;;;;;3.13;0.93;;;;;;;7.35;100.00;102137.56;5640791;26;20014;-74
2024/04/21 07:26:03;;;;;;;4.40;1.25;;;;;;;7.40;100.00;102132.13;5638677;26;20021;-74
2024/04/21 07:28:35;;;;;;;1.92;0.80;;;;;;;7.51;100.00;102148.06;5630428;26;20047;-73
2024/04/21 07:31:07;;;;;;;2.70;0.80;;;;;;;7.55;100.00;102154.81;5640902;26;20014;-73
2024/04/21 07:33:39;;;;;;;1.75;0.80;;;;;;;7.64;100.00;102143.06;5641451;26;20010;-76
2024/04/21 07:36:11;;;;;;;2.67;0.77;;;;;;;7.77;100.00;102146.72;5635977;26;20000;-74
2024/04/21 07:38:43;;;;;;;3.08;0.80;;;;;;;7.76;100.00;102142.41;5642224;26;20591;-75
2024/04/21 07:41:15;;;;;;;2.55;0.70;;;;;;;7.93;100.00;102158.03;5638029;26;20022;-76
2024/04/21 07:43:47;;;;;;;2.75;0.88;;;;;;;7.98;100.00;102174.28;5631400;26;20002;-76
2024/04/21 07:46:19;;;;;;;1.52;0.60;;;;;;;8.07;99.73;102187.75;5646319;26;20019;-74
2024/04/21 07:48:51;;;;;;;2.95;0.70;;;;;;;8.20;98.43;102196.66;5630103;26;20031;-76
2024/04/21 07:51:23;;;;;;;2.08;0.80;;;;;;;8.17;87.95;102194.19;5627052;26;20025;-74
2024/04/21 07:53:55;;;;;;;1.38;0.52;;;;;;;8.25;89.23;102213.75;5628115;26;20007;-74
2024/04/21 07:56:27;;;;;;;1.55;0.70;;;;;;;8.28;89.50;102210.13;5637945;26;19999;-74
2024/04/21 07:58:59;;;;;;;2.38;0.90;;;;;;;8.28;86.92;102210.13;5635191;26;20006;-75
2024/04/21 08:01:31;;;;;;;2.33;0.80;;;;;;;8.29;89.58;102225.72;5638203;26;20014;-75
2024/04/21 08:04:03;;;;;;;2.08;0.90;;;;;;;8.20;85.29;102220.16;5641004;26;20028;-74
2024/04/21 08:06:35;;;;;;;1.27;0.60;;;;;;;8.25;88.40;102233.78;5631053;26;20384;-74
2024/04/21 08:09:07;;;;;;;2.10;0.80;;;;;;;8.32;87.21;102240.38;5629969;26;19999;-73
2024/04/21 08:11:39;;;;;;;1.92;0.70;;;;;;;8.56;90.21;102248.72;5637344;26;20072;-76
2024/04/21 08:14:11;;;;;;;1.67;0.60;;;;;;;8.57;86.73;102255.63;5645223;26;19999;-76
2024/04/21 08:16:43;;;;;;;2.58;0.82;;;;;;;8.53;80.95;102261.94;5638740;26;19999;-76
2024/04/21 08:19:15;;;;;;;2.07;0.73;;;;;;;8.62;84.40;102263.22;5638334;26;20000;-74
2024/04/21 08:21:47;;;;;;;4.13;0.85;;;;;;;8.60;81.06;102267.66;5641522;26;20237;-74
2024/04/21 08:24:19;;;;;;;2.65;1.13;;;;;;;8.59;80.15;102271.22;5646853;26;20007;-76
2024/04/21 08:26:54;;;;;;;4.55;1.02;;;;;;;8.58;81.41;102261.69;5637130;26;20010;-74
2024/04/21 08:29:26;;;;;;;4.00;1.00;;;;;;;8.67;77.92;102269.84;5635769;26;20586;-75
2024/04/21 08:31:58;;;;;;;4.55;1.10;;;;;;;8.81;80.16;102276.97;5645147;26;20057;-76
2024/04/21 08:34:30;;;;;;;3.40;0.80;;;;;;;8.85;77.48;102260.19;5634160;26;20027;-75
2024/04/21 08:37:03;;;;;;;3.92;1.02;;;;;;;9.16;75.46;102276.78;5633168;26;20003;-74
2024/04/21 08:39:35;;;;;;;6.57;1.63;;;;;;;9.18;71.32;102261.88;5634439;26;19999;-74
2024/04/21 08:42:09;;;;;;;5.30;1.67;;;;;;;9.39;69.76;102268.47;5634577;26;20007;-73
2024/04/21 08:44:40;;;;;;;7.15;1.80;;;;;;;9.68;71.30;102277.28;5635980;26;20391;-74
2024/04/21 08:47:13;;;;;;;7.80;1.95;;;;;;;9.79;67.73;102270.59;5633013;26;20080;-75
2024/04/21 08:49:46;;;;;;;5.43;1.15;;;;;;;10.06;68.80;102283.81;5630486;26;20017;-74
2024/04/21 08:52:21;;;;;;;4.90;1.50;;;;;;;10.23;66.11;102288.91;5643583;26;20135;-74
2024/04/21 08:54:53;;;;;;;4.97;1.55;;;;;;;10.21;65.79;102277.66;5638369;26;20027;-74
2024/04/21 08:57:26;;;;;;;6.65;1.20;;;;;;;10.36;63.86;102296.88;5635000;26;20777;-74
2024/04/21 08:59:59;;;;;;;4.35;1.10;;;;;;;10.64;64.40;102282.91;5631289;26;20025;-74
2024/04/21 09:02:30;;;;;;;4.53;1.20;;;;;;;10.75;63.70;102293.56;5634069;26;20040;-76
2024/04/21 09:05:03;;;;;;;7.00;1.75;;;;;;;10.66;62.52;102296.78;5634787;26;20075;-75
2024/04/21 09:07:37;;;;;;;4.50;1.42;;;;;;;10.87;65.80;102298.06;5625140;26;20016;-75
2024/04/21 09:10:14;;;;;;;4.45;1.60;;;;;;;10.84;59.77;102307.91;5631800;26;20031;-75
2024/04/21 09:12:47;;;;;;;6.40;1.60;;;;;;;10.95;58.54;102311.53;5629935;26;19998;-76
2024/04/21 09:15:19;;;;;;;4.53;1.30;;;;;;;10.93;54.19;102317.81;5638390;26;20046;-76
2024/04/21 09:17:51;;;;;;;4.72;1.40;;;;;;;10.96;56.53;102325.47;5638169;26;20038;-74
2024/04/21 09:20:23;;;;;;;5.13;1.52;;;;;;;10.88;55.25;102328.59;5630015;26;20007;-77
2024/04/21 09:22:55;;;;;;;5.93;1.58;;;;;;;10.95;58.45;102329.06;5636207;26;20479;-75
2024/04/21 09:25:27;;;;;;;3.20;1.10;;;;;;;10.91;55.55;102341.50;5631140;26;20004;-74
2024/04/21 09:27:59;;;;;;;6.90;1.50;;;;;;;11.14;58.25;102332.19;5641735;26;20043;-74
2024/04/21 09:30:31;;;;;;;4.35;1.13;;;;;;;11.40;57.60;102338.41;5634390;26;20022;-74
2024/04/21 09:33:03;;;;;;;5.13;1.40;;;;;;;11.39;56.39;102328.81;5643556;26;20892;-74
2024/04/21 09:35:36;;;;;;;3.70;1.00;;;;;;;11.62;57.14;102331.75;5640569;26;21855;-74
2024/04/21 09:38:08;;;;;;;4.15;1.40;;;;;;;11.54;56.73;102332.25;5630081;26;20436;-76
2024/04/21 09:40:41;;;;;;;3.67;1.43;;;;;;;11.41;53.98;102336.63;5642181;26;20023;-74
2024/04/21 09:43:15;;;;;;;5.70;1.50;;;;;;;11.55;57.17;102349.66;5670490;26;20059;-75
2024/04/21 09:45:50;;;;;;;5.93;1.60;;;;;;;11.73;56.27;102352.88;5634150;26;20375;-76
2024/04/21 09:48:26;;;;;;;5.80;1.50;;;;;;;12.05;57.31;102357.84;5638434;26;20017;-74
2024/04/21 09:50:58;;;;;;;4.88;1.33;;;;;;;12.21;56.13;102344.50;5635684;26;20035;-74
2024/04/21 09:53:32;;;;;;;3.83;1.50;;;;;;;12.17;54.33;102357.84;5632147;26;20421;-74
2024/04/21 09:56:06;;;;;;;6.75;1.85;;;;;;;11.91;53.00;102364.84;5636759;26;20030;-75
2024/04/21 09:58:40;;;;;;;5.28;1.73;;;;;;;11.83;51.03;102363.63;5631383;26;20006;-76
2024/04/21 10:01:25;;;;;;;5.30;1.75;;;;;;;11.83;51.81;102366.25;5646587;26;20014;-75
2024/04/21 10:04:00;;;;;;;6.65;2.13;;;;;;;11.78;54.23;102363.06;5641413;26;20055;-74
2024/04/21 10:06:33;;;;;;;6.90;1.75;;;;;;;11.79;54.01;102364.78;5640557;26;20054;-75
2024/04/21 10:09:05;;;;;;;7.32;1.90;;;;;;;11.89;52.73;102363.25;5635033;26;20061;-75
2024/04/21 10:11:37;;;;;;;8.70;1.60;;;;;;;12.03;53.69;102355.28;5629236;26;20054;-74
2024/04/21 10:14:10;;;;;;;4.70;1.60;;;;;;;12.27;51.82;102373.81;5632311;26;20885;-76
2024/04/21 10:16:42;;;;;;;6.95;1.70;;;;;;;12.38;51.44;102373.09;5641971;26;20055;-77
2024/04/21 10:19:22;;;;;;;6.07;2.13;;;;;;;12.38;52.28;102386.22;5632982;26;20017;-75
2024/04/21 10:21:53;;;;;;;5.05;1.70;;;;;;;12.00;47.49;102396.69;5636632;26;20698;-76
2024/04/21 10:24:25;;;;;;;3.65;1.85;;;;;;;11.98;50.38;102388.91;5645213;26;19998;-76
2024/04/21 10:27:01;;;;;;;4.75;1.90;;;;;;;11.91;49.45;102396.34;5643963;26;20013;-76
2024/04/21 10:29:33;;;;;;;5.88;2.15;;;;;;;12.05;52.07;102392.81;5635553;26;20013;-77
2024/04/21 10:32:22;;;;;;;4.57;2.30;;;;;;;12.46;52.64;102391.81;5645267;26;20567;-74
2024/04/21 10:34:56;;;;;;;5.28;2.20;;;;;;;12.55;49.61;102391.19;5638587;26;20462;-75
2024/04/21 10:37:30;;;;;;;5.35;2.00;;;;;;;12.60;48.97;102385.63;5636322;26;20028;-74
2024/04/21 10:40:04;;;;;;;5.40;1.85;;;;;;;12.74;50.39;102388.13;5640026;26;20480;-74
2024/04/21 10:42:36;;;;;;;4.15;1.70;;;;;;;12.73;50.47;102390.84;5637981;26;19995;-74
2024/04/21 10:45:08;;;;;;;5.25;2.00;;;;;;;12.47;49.46;102396.13;5642513;26;20031;-74
2024/04/21 10:47:40;;;;;;;3.22;1.45;;;;;;;12.33;50.75;102388.34;5642964;26;19999;-77
2024/04/21 10:50:12;;;;;;;5.00;1.65;;;;;;;12.45;49.71;102384.03;5646400;26;21819;-74
2024/04/21 10:52:45;;;;;;;3.28;1.50;;;;;;;12.45;50.77;102399.81;5641149;26;20032;-75
2024/04/21 10:55:19;;;;;;;7.33;2.03;;;;;;;12.69;51.24;102392.03;5635419;26;20036;-74
2024/04/21 10:57:51;;;;;;;3.97;1.50;;;;;;;12.72;52.15;102395.28;5634868;26;20369;-74
2024/04/21 11:00:23;;;;;;;4.00;1.48;;;;;;;12.68;50.18;102398.22;5632199;26;20018;-74
2024/04/21 11:02:56;;;;;;;3.77;1.60;;;;;;;12.69;50.60;102405.16;5636561;26;20046;-75
2024/04/21 11:05:51;;;;;;;2.75;1.42;;;;;;;13.10;51.33;102408.38;5643839;26;20039;-75
2024/04/21 11:08:24;;;;;;;4.57;1.58;;;;;;;12.67;52.85;102392.13;5622136;26;20347;-75
2024/04/21 11:10:56;;;;;;;5.28;1.45;;;;;;;12.70;50.41;102391.94;5639941;26;20048;-75
2024/04/21 11:13:28;;;;;;;4.75;1.70;;;;;;;12.64;48.89;102402.84;5632707;26;20035;-75
2024/04/21 11:16:00;;;;;;;4.35;1.73;;;;;;;12.81;48.26;102402.56;5646794;26;19999;-76
2024/04/21 11:18:32;;;;;;;4.05;1.45;;;;;;;12.96;45.82;102407.69;5638569;26;20036;-74
2024/04/21 11:21:04;;;;;;;3.28;1.30;;;;;;;13.16;46.76;102409.75;5642549;26;20000;-74
2024/04/21 11:23:38;;;;;;;4.00;1.60;;;;;;;13.43;46.80;102388.53;5635047;26;20771;-74
2024/04/21 11:26:10;;;;;;;3.00;1.20;;;;;;;13.62;44.98;102395.94;5633313;26;20035;-74
2024/04/21 11:28:43;;;;;;;3.20;1.52;;;;;;;13.54;44.88;102391.25;5643880;26;20508;-76
2024/04/21 11:31:15;;;;;;;3.50;1.30;;;;;;;13.78;46.36;102400.94;5634418;26;20118;-75
2024/04/21 11:33:48;;;;;;;4.30;1.90;;;;;;;13.76;46.40;102401.06;5639290;26;20030;-74
2024/04/21 11:36:21;;;;;;;2.85;1.40;;;;;;;13.64;45.38;102399.31;5631888;26;20047;-75
2024/04/21 11:38:53;;;;;;;3.78;1.20;;;;;;;13.64;47.71;102396.69;5633708;26;20010;-76
2024/04/21 11:41:25;;;;;;;3.47;1.20;;;;;;;13.90;46.97;102401.81;5634347;26;20384;-77
2024/04/21 11:43:57;;;;;;;2.65;1.40;;;;;;;14.14;46.47;102407.91;5640336;26;20035;-74
2024/04/21 11:46:31;;;;;;;4.20;1.30;;;;;;;14.33;43.47;102384.47;5644386;26;20035;-75
2024/04/21 11:49:04;;;;;;;3.30;1.30;;;;;;;14.48;44.45;102394.81;5639890;26;20055;-76
2024/04/21 11:51:36;;;;;;;2.83;1.63;;;;;;;14.47;40.47;102393.09;5639470;26;20467;-77
2024/04/21 11:54:08;;;;;;;2.92;1.60;;;;;;;14.67;42.79;102404.81;5636562;26;20010;-76